sensor_id;sensor_type;location;lat;lon;timestamp;P1;durP1;ratioP1;P2;durP2;ratioP2
37771;SDS011;23610;59.380;24.642;2023-04-29T00:01:07;1.15;;;0.60;;
37771;SDS011;23610;59.380;24.642;2023-04-29T00:06:10;1.30;;;1.08;;
37771;SDS011;23610;59.380;24.642;2023-04-29T00:11:14;0.77;;;0.77;;
37771;SDS011;23610;59.380;24.642;2023-04-29T00:16:20;7.78;;;4.20;;
37771;SDS011;23610;59.380;24.642;2023-04-29T00:21:24;5.88;;;4.15;;
37771;SDS011;23610;59.380;24.642;2023-04-29T00:26:30;14.32;;;5.32;;
37771;SDS011;23610;59.380;24.642;2023-04-29T00:31:33;8.13;;;3.25;;
37771;SDS011;23610;59.380;24.642;2023-04-29T00:36:38;2.55;;;2.30;;
37771;SDS011;23610;59.380;24.642;2023-04-29T00:41:40;4.35;;;3.20;;
37771;SDS011;23610;59.380;24.642;2023-04-29T00:46:43;2.63;;;2.08;;
37771;SDS011;23610;59.380;24.642;2023-04-29T00:51:46;2.05;;;1.90;;
37771;SDS011;23610;59.380;24.642;2023-04-29T00:56:50;3.33;;;3.13;;
37771;SDS011;23610;59.380;24.642;2023-04-29T01:01:53;1.77;;;1.25;;
37771;SDS011;23610;59.380;24.642;2023-04-29T01:07:10;0.70;;;0.70;;
37771;SDS011;23610;59.380;24.642;2023-04-29T01:17:40;2.25;;;1.50;;
37771;SDS011;23610;59.380;24.642;2023-04-29T01:22:52;3.15;;;1.38;;
37771;SDS011;23610;59.380;24.642;2023-04-29T01:39:13;5.70;;;1.50;;
37771;SDS011;23610;59.380;24.642;2023-04-29T01:44:40;2.50;;;1.20;;
37771;SDS011;23610;59.380;24.642;2023-04-29T01:49:45;2.67;;;1.67;;
37771;SDS011;23610;59.380;24.642;2023-04-29T01:54:47;1.33;;;1.23;;
37771;SDS011;23610;59.380;24.642;2023-04-29T01:59:51;4.03;;;1.00;;
37771;SDS011;23610;59.380;24.642;2023-04-29T02:05:20;2.67;;;1.98;;
37771;SDS011;23610;59.380;24.642;2023-04-29T02:10:28;1.80;;;1.70;;
37771;SDS011;23610;59.380;24.642;2023-04-29T02:16:06;1.77;;;1.05;;
37771;SDS011;23610;59.380;24.642;2023-04-29T02:21:18;1.45;;;0.98;;
37771;SDS011;23610;59.380;24.642;2023-04-29T02:26:21;3.30;;;1.08;;
37771;SDS011;23610;59.380;24.642;2023-04-29T02:31:24;0.98;;;0.88;;
37771;SDS011;23610;59.380;24.642;2023-04-29T02:36:28;1.15;;;1.05;;
37771;SDS011;23610;59.380;24.642;2023-04-29T02:41:30;2.35;;;1.23;;
37771;SDS011;23610;59.380;24.642;2023-04-29T02:46:33;2.22;;;1.55;;
37771;SDS011;23610;59.380;24.642;2023-04-29T02:51:36;1.08;;;0.90;;
37771;SDS011;23610;59.380;24.642;2023-04-29T02:56:39;1.40;;;0.80;;
37771;SDS011;23610;59.380;24.642;2023-04-29T03:01:42;1.50;;;0.88;;
37771;SDS011;23610;59.380;24.642;2023-04-29T03:06:46;0.60;;;0.60;;
37771;SDS011;23610;59.380;24.642;2023-04-29T03:11:49;1.52;;;1.30;;
37771;SDS011;23610;59.380;24.642;2023-04-29T03:16:52;5.25;;;2.72;;
37771;SDS011;23610;59.380;24.642;2023-04-29T03:21:57;1.52;;;0.82;;
37771;SDS011;23610;59.380;24.642;2023-04-29T03:26:59;1.15;;;0.80;;
37771;SDS011;23610;59.380;24.642;2023-04-29T03:32:02;2.13;;;1.63;;
37771;SDS011;23610;59.380;24.642;2023-04-29T03:37:06;3.95;;;1.80;;
37771;SDS011;23610;59.380;24.642;2023-04-29T03:42:11;4.03;;;1.48;;
37771;SDS011;23610;59.380;24.642;2023-04-29T03:47:14;10.13;;;8.00;;
37771;SDS011;23610;59.380;24.642;2023-04-29T03:52:17;5.30;;;4.90;;
37771;SDS011;23610;59.380;24.642;2023-04-29T03:57:23;3.30;;;2.55;;
37771;SDS011;23610;59.380;24.642;2023-04-29T04:02:28;2.25;;;2.05;;
37771;SDS011;23610;59.380;24.642;2023-04-29T04:07:32;3.40;;;2.97;;
37771;SDS011;23610;59.380;24.642;2023-04-29T04:13:03;2.90;;;2.28;;
37771;SDS011;23610;59.380;24.642;2023-04-29T04:18:06;22.25;;;20.05;;
37771;SDS011;23610;59.380;24.642;2023-04-29T04:23:09;10.18;;;8.05;;
37771;SDS011;23610;59.380;24.642;2023-04-29T04:28:12;4.10;;;3.80;;
37771;SDS011;23610;59.380;24.642;2023-04-29T04:33:38;8.02;;;4.30;;
37771;SDS011;23610;59.380;24.642;2023-04-29T04:38:43;5.95;;;5.35;;
37771;SDS011;23610;59.380;24.642;2023-04-29T04:43:46;3.13;;;2.42;;
37771;SDS011;23610;59.380;24.642;2023-04-29T04:48:56;1.75;;;1.15;;
37771;SDS011;23610;59.380;24.642;2023-04-29T04:54:01;1.10;;;0.97;;
37771;SDS011;23610;59.380;24.642;2023-04-29T04:59:06;0.93;;;0.52;;
37771;SDS011;23610;59.380;24.642;2023-04-29T05:04:11;0.52;;;0.52;;
37771;SDS011;23610;59.380;24.642;2023-04-29T05:09:13;1.58;;;0.88;;
37771;SDS011;23610;59.380;24.642;2023-04-29T05:14:16;3.88;;;1.05;;
37771;SDS011;23610;59.380;24.642;2023-04-29T05:19:19;2.10;;;0.85;;
37771;SDS011;23610;59.380;24.642;2023-04-29T05:24:23;2.63;;;0.82;;
37771;SDS011;23610;59.380;24.642;2023-04-29T05:29:25;1.40;;;0.63;;
37771;SDS011;23610;59.380;24.642;2023-04-29T05:34:32;0.43;;;0.43;;
37771;SDS011;23610;59.380;24.642;2023-04-29T05:39:36;1.02;;;0.60;;
37771;SDS011;23610;59.380;24.642;2023-04-29T05:44:45;0.90;;;0.50;;
37771;SDS011;23610;59.380;24.642;2023-04-29T05:49:48;1.30;;;0.73;;
37771;SDS011;23610;59.380;24.642;2023-04-29T05:54:51;1.20;;;0.63;;
37771;SDS011;23610;59.380;24.642;2023-04-29T05:59:53;0.65;;;0.52;;
37771;SDS011;23610;59.380;24.642;2023-04-29T06:04:57;1.45;;;0.65;;
37771;SDS011;23610;59.380;24.642;2023-04-29T06:10:10;2.78;;;0.70;;
37771;SDS011;23610;59.380;24.642;2023-04-29T06:15:16;0.85;;;0.40;;
37771;SDS011;23610;59.380;24.642;2023-04-29T06:20:20;0.50;;;0.45;;
37771;SDS011;23610;59.380;24.642;2023-04-29T06:25:22;2.95;;;0.85;;
37771;SDS011;23610;59.380;24.642;2023-04-29T06:30:25;0.82;;;0.63;;
37771;SDS011;23610;59.380;24.642;2023-04-29T06:35:28;1.55;;;0.90;;
37771;SDS011;23610;59.380;24.642;2023-04-29T06:40:34;0.50;;;0.50;;
37771;SDS011;23610;59.380;24.642;2023-04-29T06:45:36;0.98;;;0.57;;
37771;SDS011;23610;59.380;24.642;2023-04-29T06:50:52;0.30;;;0.30;;
37771;SDS011;23610;59.380;24.642;2023-04-29T06:55:56;0.40;;;0.40;;
37771;SDS011;23610;59.380;24.642;2023-04-29T07:00:59;0.55;;;0.55;;
37771;SDS011;23610;59.380;24.642;2023-04-29T07:06:03;0.30;;;0.30;;
37771;SDS011;23610;59.380;24.642;2023-04-29T07:11:06;0.38;;;0.30;;
37771;SDS011;23610;59.380;24.642;2023-04-29T07:16:15;2.55;;;0.40;;
37771;SDS011;23610;59.380;24.642;2023-04-29T07:21:21;0.80;;;0.80;;
37771;SDS011;23610;59.380;24.642;2023-04-29T07:26:23;0.50;;;0.50;;
37771;SDS011;23610;59.380;24.642;2023-04-29T07:31:26;2.20;;;0.30;;
37771;SDS011;23610;59.380;24.642;2023-04-29T07:36:30;0.30;;;0.30;;
37771;SDS011;23610;59.380;24.642;2023-04-29T07:41:33;0.50;;;0.40;;
37771;SDS011;23610;59.380;24.642;2023-04-29T07:46:37;2.45;;;0.50;;
37771;SDS011;23610;59.380;24.642;2023-04-29T07:51:40;0.32;;;0.32;;
37771;SDS011;23610;59.380;24.642;2023-04-29T07:56:44;0.50;;;0.50;;
37771;SDS011;23610;59.380;24.642;2023-04-29T08:01:47;1.52;;;0.80;;
37771;SDS011;23610;59.380;24.642;2023-04-29T08:06:50;2.00;;;1.33;;
37771;SDS011;23610;59.380;24.642;2023-04-29T08:11:53;1.10;;;1.10;;
37771;SDS011;23610;59.380;24.642;2023-04-29T08:16:55;0.77;;;0.55;;
37771;SDS011;23610;59.380;24.642;2023-04-29T08:21:58;1.60;;;0.60;;
37771;SDS011;23610;59.380;24.642;2023-04-29T08:27:01;1.50;;;0.77;;
37771;SDS011;23610;59.380;24.642;2023-04-29T08:32:05;0.50;;;0.50;;
37771;SDS011;23610;59.380;24.642;2023-04-29T08:37:08;1.63;;;0.50;;
37771;SDS011;23610;59.380;24.642;2023-04-29T08:42:11;10.27;;;2.75;;
37771;SDS011;23610;59.380;24.642;2023-04-29T08:47:14;2.60;;;0.90;;
37771;SDS011;23610;59.380;24.642;2023-04-29T08:52:17;2.67;;;1.08;;
37771;SDS011;23610;59.380;24.642;2023-04-29T08:57:20;1.10;;;0.68;;
37771;SDS011;23610;59.380;24.642;2023-04-29T09:02:24;0.75;;;0.57;;
37771;SDS011;23610;59.380;24.642;2023-04-29T09:07:28;2.65;;;1.13;;
37771;SDS011;23610;59.380;24.642;2023-04-29T09:12:32;1.08;;;0.52;;
37771;SDS011;23610;59.380;24.642;2023-04-29T09:22:52;0.77;;;0.45;;
37771;SDS011;23610;59.380;24.642;2023-04-29T09:27:57;0.90;;;0.52;;
37771;SDS011;23610;59.380;24.642;2023-04-29T09:33:07;0.65;;;0.65;;
37771;SDS011;23610;59.380;24.642;2023-04-29T09:38:14;2.58;;;1.92;;
37771;SDS011;23610;59.380;24.642;2023-04-29T09:43:18;1.20;;;0.70;;
37771;SDS011;23610;59.380;24.642;2023-04-29T09:48:22;0.93;;;0.50;;
37771;SDS011;23610;59.380;24.642;2023-04-29T09:53:34;1.25;;;0.47;;
37771;SDS011;23610;59.380;24.642;2023-04-29T09:58:38;0.60;;;0.52;;
37771;SDS011;23610;59.380;24.642;2023-04-29T10:03:41;1.15;;;0.65;;
37771;SDS011;23610;59.380;24.642;2023-04-29T10:08:46;1.03;;;0.50;;
37771;SDS011;23610;59.380;24.642;2023-04-29T10:13:49;0.40;;;0.40;;
37771;SDS011;23610;59.380;24.642;2023-04-29T10:18:53;0.98;;;0.35;;
37771;SDS011;23610;59.380;24.642;2023-04-29T10:24:00;0.85;;;0.80;;
37771;SDS011;23610;59.380;24.642;2023-04-29T10:29:06;0.90;;;0.40;;
37771;SDS011;23610;59.380;24.642;2023-04-29T10:34:11;2.78;;;0.77;;
37771;SDS011;23610;59.380;24.642;2023-04-29T10:39:29;0.60;;;0.40;;
37771;SDS011;23610;59.380;24.642;2023-04-29T10:45:15;1.88;;;0.25;;
37771;SDS011;23610;59.380;24.642;2023-04-29T10:50:21;0.40;;;0.40;;
37771;SDS011;23610;59.380;24.642;2023-04-29T10:55:24;1.95;;;0.57;;
37771;SDS011;23610;59.380;24.642;2023-04-29T11:00:27;0.65;;;0.40;;
37771;SDS011;23610;59.380;24.642;2023-04-29T11:05:35;2.38;;;0.50;;
37771;SDS011;23610;59.380;24.642;2023-04-29T11:10:41;0.40;;;0.40;;
37771;SDS011;23610;59.380;24.642;2023-04-29T11:15:44;1.30;;;0.38;;
37771;SDS011;23610;59.380;24.642;2023-04-29T11:26:08;0.85;;;0.57;;
37771;SDS011;23610;59.380;24.642;2023-04-29T11:31:11;1.58;;;0.50;;
37771;SDS011;23610;59.380;24.642;2023-04-29T11:36:13;0.70;;;0.47;;
37771;SDS011;23610;59.380;24.642;2023-04-29T11:41:16;1.92;;;1.17;;
37771;SDS011;23610;59.380;24.642;2023-04-29T11:46:19;3.17;;;2.88;;
37771;SDS011;23610;59.380;24.642;2023-04-29T11:51:22;1.08;;;0.68;;
37771;SDS011;23610;59.380;24.642;2023-04-29T11:56:24;0.88;;;0.43;;
37771;SDS011;23610;59.380;24.642;2023-04-29T12:01:27;4.47;;;0.60;;
37771;SDS011;23610;59.380;24.642;2023-04-29T12:06:29;2.85;;;0.70;;
37771;SDS011;23610;59.380;24.642;2023-04-29T12:11:32;5.45;;;1.20;;
37771;SDS011;23610;59.380;24.642;2023-04-29T12:16:37;1.60;;;1.23;;
37771;SDS011;23610;59.380;24.642;2023-04-29T12:21:46;0.57;;;0.47;;
37771;SDS011;23610;59.380;24.642;2023-04-29T12:26:50;0.93;;;0.55;;
37771;SDS011;23610;59.380;24.642;2023-04-29T12:31:55;0.75;;;0.50;;
37771;SDS011;23610;59.380;24.642;2023-04-29T12:36:58;0.60;;;0.60;;
37771;SDS011;23610;59.380;24.642;2023-04-29T12:42:02;1.35;;;0.88;;
37771;SDS011;23610;59.380;24.642;2023-04-29T12:47:06;2.15;;;0.95;;
37771;SDS011;23610;59.380;24.642;2023-04-29T12:52:11;2.95;;;2.03;;
37771;SDS011;23610;59.380;24.642;2023-04-29T12:57:14;0.70;;;0.70;;
37771;SDS011;23610;59.380;24.642;2023-04-29T13:02:17;4.00;;;0.68;;
37771;SDS011;23610;59.380;24.642;2023-04-29T13:07:19;0.40;;;0.40;;
37771;SDS011;23610;59.380;24.642;2023-04-29T13:12:22;1.67;;;0.75;;
37771;SDS011;23610;59.380;24.642;2023-04-29T13:17:25;1.77;;;1.05;;
37771;SDS011;23610;59.380;24.642;2023-04-29T13:22:28;3.03;;;2.70;;
37771;SDS011;23610;59.380;24.642;2023-04-29T13:27:31;1.35;;;0.77;;
37771;SDS011;23610;59.380;24.642;2023-04-29T13:32:34;0.70;;;0.70;;
37771;SDS011;23610;59.380;24.642;2023-04-29T13:37:39;0.80;;;0.80;;
37771;SDS011;23610;59.380;24.642;2023-04-29T13:42:42;1.58;;;1.00;;
37771;SDS011;23610;59.380;24.642;2023-04-29T13:47:51;1.73;;;0.80;;
37771;SDS011;23610;59.380;24.642;2023-04-29T13:53:08;1.05;;;0.65;;
37771;SDS011;23610;59.380;24.642;2023-04-29T13:58:31;1.92;;;1.20;;
37771;SDS011;23610;59.380;24.642;2023-04-29T14:03:54;2.60;;;1.33;;
37771;SDS011;23610;59.380;24.642;2023-04-29T14:08:57;5.13;;;1.30;;
37771;SDS011;23610;59.380;24.642;2023-04-29T14:14:04;2.17;;;1.67;;
37771;SDS011;23610;59.380;24.642;2023-04-29T14:19:07;3.90;;;1.23;;
37771;SDS011;23610;59.380;24.642;2023-04-29T14:24:10;3.00;;;1.40;;
37771;SDS011;23610;59.380;24.642;2023-04-29T14:29:12;6.95;;;3.22;;
37771;SDS011;23610;59.380;24.642;2023-04-29T14:34:15;2.38;;;1.48;;
37771;SDS011;23610;59.380;24.642;2023-04-29T14:39:19;5.20;;;1.87;;
37771;SDS011;23610;59.380;24.642;2023-04-29T14:44:22;3.30;;;1.70;;
37771;SDS011;23610;59.380;24.642;2023-04-29T14:49:25;2.83;;;1.17;;
37771;SDS011;23610;59.380;24.642;2023-04-29T14:54:30;1.73;;;1.00;;
37771;SDS011;23610;59.380;24.642;2023-04-29T14:59:33;2.88;;;0.90;;
37771;SDS011;23610;59.380;24.642;2023-04-29T15:04:36;2.88;;;1.27;;
37771;SDS011;23610;59.380;24.642;2023-04-29T15:09:40;2.20;;;1.05;;
37771;SDS011;23610;59.380;24.642;2023-04-29T15:14:43;1.63;;;1.20;;
37771;SDS011;23610;59.380;24.642;2023-04-29T15:19:46;2.08;;;0.98;;
37771;SDS011;23610;59.380;24.642;2023-04-29T15:24:48;2.78;;;1.40;;
37771;SDS011;23610;59.380;24.642;2023-04-29T15:29:53;2.25;;;1.23;;
37771;SDS011;23610;59.380;24.642;2023-04-29T15:35:00;3.80;;;1.17;;
37771;SDS011;23610;59.380;24.642;2023-04-29T15:40:07;2.97;;;1.35;;
37771;SDS011;23610;59.380;24.642;2023-04-29T15:45:11;1.77;;;1.38;;
37771;SDS011;23610;59.380;24.642;2023-04-29T15:50:14;4.88;;;2.53;;
37771;SDS011;23610;59.380;24.642;2023-04-29T15:55:17;1.15;;;1.02;;
37771;SDS011;23610;59.380;24.642;2023-04-29T16:00:24;4.22;;;1.60;;
37771;SDS011;23610;59.380;24.642;2023-04-29T16:05:26;1.08;;;0.98;;
37771;SDS011;23610;59.380;24.642;2023-04-29T16:10:30;3.35;;;1.55;;
37771;SDS011;23610;59.380;24.642;2023-04-29T16:15:32;0.95;;;0.85;;
37771;SDS011;23610;59.380;24.642;2023-04-29T16:20:35;1.95;;;0.50;;
37771;SDS011;23610;59.380;24.642;2023-04-29T16:25:40;3.70;;;2.30;;
37771;SDS011;23610;59.380;24.642;2023-04-29T16:30:43;8.77;;;4.22;;
37771;SDS011;23610;59.380;24.642;2023-04-29T16:35:46;10.35;;;5.50;;
37771;SDS011;23610;59.380;24.642;2023-04-29T16:40:49;10.85;;;4.93;;
37771;SDS011;23610;59.380;24.642;2023-04-29T16:45:52;6.07;;;3.10;;
37771;SDS011;23610;59.380;24.642;2023-04-29T16:50:55;6.43;;;2.80;;
37771;SDS011;23610;59.380;24.642;2023-04-29T16:55:58;2.28;;;1.92;;
37771;SDS011;23610;59.380;24.642;2023-04-29T17:01:00;9.30;;;4.43;;
37771;SDS011;23610;59.380;24.642;2023-04-29T17:06:05;12.65;;;6.07;;
37771;SDS011;23610;59.380;24.642;2023-04-29T17:11:08;10.20;;;4.70;;
37771;SDS011;23610;59.380;24.642;2023-04-29T17:16:10;4.13;;;2.42;;
37771;SDS011;23610;59.380;24.642;2023-04-29T17:21:15;4.25;;;1.92;;
37771;SDS011;23610;59.380;24.642;2023-04-29T17:26:18;2.85;;;2.03;;
37771;SDS011;23610;59.380;24.642;2023-04-29T17:31:21;3.30;;;2.38;;
37771;SDS011;23610;59.380;24.642;2023-04-29T17:36:26;4.50;;;3.05;;
37771;SDS011;23610;59.380;24.642;2023-04-29T17:41:28;2.08;;;1.63;;
37771;SDS011;23610;59.380;24.642;2023-04-29T17:46:31;3.00;;;1.48;;
37771;SDS011;23610;59.380;24.642;2023-04-29T17:51:34;3.42;;;1.73;;
37771;SDS011;23610;59.380;24.642;2023-04-29T17:56:37;5.22;;;2.13;;
37771;SDS011;23610;59.380;24.642;2023-04-29T18:01:39;4.35;;;1.90;;
37771;SDS011;23610;59.380;24.642;2023-04-29T18:06:43;3.05;;;1.40;;
37771;SDS011;23610;59.380;24.642;2023-04-29T18:11:45;4.45;;;2.03;;
37771;SDS011;23610;59.380;24.642;2023-04-29T18:16:49;4.97;;;2.55;;
37771;SDS011;23610;59.380;24.642;2023-04-29T18:21:52;2.95;;;1.75;;
37771;SDS011;23610;59.380;24.642;2023-04-29T18:26:58;4.13;;;2.50;;
37771;SDS011;23610;59.380;24.642;2023-04-29T18:32:00;3.08;;;2.05;;
37771;SDS011;23610;59.380;24.642;2023-04-29T18:42:08;4.97;;;2.95;;
37771;SDS011;23610;59.380;24.642;2023-04-29T18:47:12;6.97;;;4.25;;
37771;SDS011;23610;59.380;24.642;2023-04-29T18:52:15;4.38;;;2.53;;
37771;SDS011;23610;59.380;24.642;2023-04-29T18:57:17;2.15;;;1.48;;
37771;SDS011;23610;59.380;24.642;2023-04-29T19:02:20;2.10;;;1.40;;
37771;SDS011;23610;59.380;24.642;2023-04-29T19:07:23;2.58;;;1.92;;
37771;SDS011;23610;59.380;24.642;2023-04-29T19:12:25;13.07;;;6.43;;
37771;SDS011;23610;59.380;24.642;2023-04-29T19:17:28;5.18;;;3.28;;
37771;SDS011;23610;59.380;24.642;2023-04-29T19:22:31;7.18;;;4.15;;
37771;SDS011;23610;59.380;24.642;2023-04-29T19:27:34;7.03;;;3.38;;
37771;SDS011;23610;59.380;24.642;2023-04-29T19:32:36;6.07;;;1.75;;
37771;SDS011;23610;59.380;24.642;2023-04-29T19:37:39;3.38;;;1.58;;
37771;SDS011;23610;59.380;24.642;2023-04-29T19:42:41;3.08;;;1.13;;
37771;SDS011;23610;59.380;24.642;2023-04-29T19:47:45;1.73;;;0.95;;
37771;SDS011;23610;59.380;24.642;2023-04-29T19:52:48;3.53;;;1.48;;
37771;SDS011;23610;59.380;24.642;2023-04-29T19:57:52;1.75;;;1.13;;
37771;SDS011;23610;59.380;24.642;2023-04-29T20:02:54;3.75;;;1.30;;
37771;SDS011;23610;59.380;24.642;2023-04-29T20:07:57;2.88;;;1.00;;
37771;SDS011;23610;59.380;24.642;2023-04-29T20:12:59;3.72;;;1.85;;
37771;SDS011;23610;59.380;24.642;2023-04-29T20:18:02;2.75;;;1.70;;
37771;SDS011;23610;59.380;24.642;2023-04-29T20:23:05;5.60;;;2.00;;
37771;SDS011;23610;59.380;24.642;2023-04-29T20:33:23;4.80;;;2.00;;
37771;SDS011;23610;59.380;24.642;2023-04-29T20:38:26;5.03;;;2.40;;
37771;SDS011;23610;59.380;24.642;2023-04-29T20:43:29;4.93;;;2.42;;
37771;SDS011;23610;59.380;24.642;2023-04-29T20:48:35;4.97;;;2.30;;
37771;SDS011;23610;59.380;24.642;2023-04-29T20:53:38;5.35;;;2.38;;
37771;SDS011;23610;59.380;24.642;2023-04-29T20:58:41;8.25;;;3.95;;
37771;SDS011;23610;59.380;24.642;2023-04-29T21:04:04;2.70;;;1.90;;
37771;SDS011;23610;59.380;24.642;2023-04-29T21:09:07;2.55;;;2.35;;
37771;SDS011;23610;59.380;24.642;2023-04-29T21:14:12;7.22;;;2.55;;
37771;SDS011;23610;59.380;24.642;2023-04-29T21:19:15;6.93;;;2.90;;
37771;SDS011;23610;59.380;24.642;2023-04-29T21:24:17;7.13;;;3.05;;
37771;SDS011;23610;59.380;24.642;2023-04-29T21:29:20;7.68;;;3.03;;
37771;SDS011;23610;59.380;24.642;2023-04-29T21:34:23;5.63;;;3.67;;
37771;SDS011;23610;59.380;24.642;2023-04-29T21:39:25;5.68;;;2.90;;
37771;SDS011;23610;59.380;24.642;2023-04-29T21:44:28;6.10;;;3.65;;
37771;SDS011;23610;59.380;24.642;2023-04-29T21:49:32;6.85;;;3.50;;
37771;SDS011;23610;59.380;24.642;2023-04-29T21:54:35;5.70;;;3.10;;
37771;SDS011;23610;59.380;24.642;2023-04-29T21:59:37;4.45;;;3.40;;
37771;SDS011;23610;59.380;24.642;2023-04-29T22:04:40;6.40;;;3.70;;
37771;SDS011;23610;59.380;24.642;2023-04-29T22:09:43;7.10;;;3.83;;
37771;SDS011;23610;59.380;24.642;2023-04-29T22:14:51;12.35;;;4.68;;
37771;SDS011;23610;59.380;24.642;2023-04-29T22:19:54;6.57;;;4.57;;
37771;SDS011;23610;59.380;24.642;2023-04-29T22:24:57;12.68;;;6.85;;
37771;SDS011;23610;59.380;24.642;2023-04-29T22:30:01;8.75;;;5.07;;
37771;SDS011;23610;59.380;24.642;2023-04-29T22:35:04;8.63;;;5.15;;
37771;SDS011;23610;59.380;24.642;2023-04-29T22:40:07;8.15;;;4.30;;
37771;SDS011;23610;59.380;24.642;2023-04-29T22:45:10;9.63;;;5.90;;
37771;SDS011;23610;59.380;24.642;2023-04-29T22:50:13;7.57;;;5.10;;
37771;SDS011;23610;59.380;24.642;2023-04-29T22:55:16;15.00;;;5.57;;
37771;SDS011;23610;59.380;24.642;2023-04-29T23:00:19;12.38;;;5.13;;
37771;SDS011;23610;59.380;24.642;2023-04-29T23:05:22;8.88;;;4.57;;
37771;SDS011;23610;59.380;24.642;2023-04-29T23:10:24;9.27;;;4.30;;
37771;SDS011;23610;59.380;24.642;2023-04-29T23:15:27;11.00;;;4.13;;
37771;SDS011;23610;59.380;24.642;2023-04-29T23:20:30;8.73;;;4.35;;
37771;SDS011;23610;59.380;24.642;2023-04-29T23:25:33;6.22;;;4.45;;
37771;SDS011;23610;59.380;24.642;2023-04-29T23:30:36;5.47;;;4.32;;
37771;SDS011;23610;59.380;24.642;2023-04-29T23:35:39;6.22;;;4.47;;
37771;SDS011;23610;59.380;24.642;2023-04-29T23:40:41;8.48;;;4.50;;
37771;SDS011;23610;59.380;24.642;2023-04-29T23:45:44;5.20;;;3.97;;
37771;SDS011;23610;59.380;24.642;2023-04-29T23:50:48;6.03;;;4.53;;
37771;SDS011;23610;59.380;24.642;2023-04-29T23:55:50;7.05;;;4.32;;
